This is the latest recevied weather packets stored in our database for station/object OK2PYA-5. If no packets are shown the sender has not sent any weather packets the latest 10 day(s).
| Time | Temp. | Humidity | Pressure | Rain* | Wind** | Luminosity | Snow |
|---|---|---|---|---|---|---|---|
| 1777582855 | 5° C | 67% | 1027 hPa | - | - | - | - |
| 1777580928 | 5.56° C | 64% | 1026.9 hPa | - | - | - | - |
| 1777579002 | 5.56° C | 64% | 1026.9 hPa | - | - | - | - |
| 1777577075 | 7.22° C | 58% | 1026.6 hPa | - | - | - | - |
| 1777575148 | 7.22° C | 56% | 1026.3 hPa | - | - | - | - |
| 1777573221 | 7.78° C | 52% | 1026 hPa | - | - | - | - |
| 1777571295 | 9.44° C | 45% | 1025.8 hPa | - | - | - | - |
| 1777569368 | 10° C | 42% | 1025.8 hPa | - | - | - | - |
| 1777567441 | 10° C | 40% | 1025.8 hPa | - | - | - | - |
| 1777565109 | 10.56° C | 40% | 1025.9 hPa | - | - | - | - |
| 1777563182 | 10° C | 40% | 1026 hPa | - | - | - | - |
| 1777561255 | 10° C | 40% | 1026.1 hPa | - | - | - | - |
| 1777559328 | 9.44° C | 41% | 1026.4 hPa | - | - | - | - |
| 1777557402 | 10° C | 42% | 1026.7 hPa | - | - | - | - |
| 1777555475 | 9.44° C | 42% | 1026.9 hPa | - | - | - | - |
| 1777553547 | 9.44° C | 41% | 1026.9 hPa | - | - | - | - |
| 1777551621 | 8.89° C | 42% | 1027.1 hPa | - | - | - | - |
| 1777549694 | 8.33° C | 43% | 1027.3 hPa | - | - | - | - |
| 1777547767 | 8.33° C | 43% | 1027.5 hPa | - | - | - | - |
| 1777545840 | 7.78° C | 43% | 1027.6 hPa | - | - | - | - |
| 1777543509 | 7.78° C | 44% | 1028 hPa | - | - | - | - |
| 1777541582 | 7.22° C | 46% | 1028.2 hPa | - | - | - | - |
| 1777539655 | 6.67° C | 50% | 1028.2 hPa | - | - | - | - |
| 1777537728 | 6.11° C | 53% | 1028.4 hPa | - | - | - | - |
| 1777535801 | 5.56° C | 55% | 1028.6 hPa | - | - | - | - |
* Rain since midnight (hover to see other rain measurements)
** Current wind speed in m/s (hover to see current wind gust speed)